createdAt,value
2022-10-20T00:02:26.574Z,17.40
2022-10-20T00:04:54.382Z,17.40
2022-10-20T00:07:23.206Z,17.20
2022-10-20T00:09:52.320Z,17.40
2022-10-20T00:12:20.084Z,17.40
2022-10-20T00:14:48.076Z,17.60
2022-10-20T00:17:15.815Z,17.60
2022-10-20T00:19:43.606Z,17.70
2022-10-20T00:22:11.368Z,17.70
2022-10-20T00:24:39.144Z,17.60
2022-10-20T00:27:08.284Z,17.60
2022-10-20T00:29:36.138Z,17.60
2022-10-20T00:32:03.941Z,17.60
2022-10-20T00:34:31.754Z,17.50
2022-10-20T00:36:59.516Z,17.40
2022-10-20T00:39:27.384Z,17.50
2022-10-20T00:41:55.157Z,17.60
2022-10-20T00:44:56.159Z,17.50
2022-10-20T00:47:36.658Z,17.40
2022-10-20T00:50:09.955Z,17.70
2022-10-20T00:52:38.930Z,17.70
2022-10-20T00:55:08.806Z,17.70
2022-10-20T00:57:37.627Z,17.70
2022-10-20T01:00:08.807Z,17.50
2022-10-20T01:02:37.464Z,17.30
2022-10-20T01:05:06.309Z,17.30
2022-10-20T01:07:34.377Z,17.20
2022-10-20T01:10:03.239Z,17.20
2022-10-20T01:12:39.600Z,17.40
2022-10-20T01:15:17.684Z,17.40
2022-10-20T01:17:52.780Z,17.20
2022-10-20T01:20:49.581Z,17.30
2022-10-20T01:24:01.297Z,17.10
2022-10-20T01:26:43.847Z,17.20
2022-10-20T01:29:20.677Z,17.20
2022-10-20T01:31:53.893Z,17.10
2022-10-20T01:34:28.562Z,17.10
2022-10-20T01:37:01.958Z,17.30
2022-10-20T01:39:35.044Z,17.20
2022-10-20T01:42:06.936Z,17.20
2022-10-20T01:44:37.708Z,17.20
2022-10-20T01:47:06.763Z,17.20
2022-10-20T01:49:34.597Z,17.10
2022-10-20T01:52:02.557Z,17.10
2022-10-20T01:54:31.528Z,17.10
2022-10-20T01:57:14.268Z,17.30
2022-10-20T01:59:54.143Z,17.40
2022-10-20T02:02:35.254Z,17.30
2022-10-20T02:05:21.434Z,17.30
2022-10-20T02:07:50.131Z,17.60
2022-10-20T02:10:21.327Z,17.40
2022-10-20T02:12:54.628Z,17.30
2022-10-20T02:15:26.545Z,17.20
2022-10-20T02:17:59.086Z,17.20
2022-10-20T02:20:27.336Z,17.20
2022-10-20T02:22:56.870Z,17.30
2022-10-20T02:25:25.824Z,17.10
2022-10-20T02:27:56.183Z,17.10
2022-10-20T02:30:25.775Z,17.00
2022-10-20T02:32:53.758Z,17.00
2022-10-20T02:35:24.034Z,17.00
2022-10-20T02:37:52.025Z,16.90
2022-10-20T02:40:21.944Z,17.10
2022-10-20T02:42:50.082Z,16.90
2022-10-20T02:45:18.042Z,17.00
2022-10-20T02:47:47.379Z,16.90
2022-10-20T02:50:15.966Z,16.90
2022-10-20T02:52:43.743Z,16.80
2022-10-20T02:55:11.653Z,16.80
2022-10-20T02:57:39.724Z,17.00
2022-10-20T03:00:08.800Z,17.00
2022-10-20T03:02:36.639Z,17.10
2022-10-20T03:05:06.570Z,17.10
2022-10-20T03:07:35.368Z,16.90
2022-10-20T03:10:03.494Z,16.90
2022-10-20T03:12:32.284Z,16.90
2022-10-20T03:15:00.228Z,16.90
2022-10-20T03:17:28.003Z,16.90
2022-10-20T03:19:55.758Z,17.00
2022-10-20T03:22:24.914Z,16.90
2022-10-20T03:24:52.711Z,17.00
2022-10-20T03:27:20.519Z,17.00
2022-10-20T03:29:48.291Z,17.00
2022-10-20T03:32:16.150Z,16.90
2022-10-20T03:34:43.915Z,17.00
2022-10-20T03:37:11.733Z,17.00
2022-10-20T03:39:40.915Z,16.90
2022-10-20T03:42:08.669Z,17.10
2022-10-20T03:44:36.452Z,17.50
2022-10-20T03:47:04.212Z,17.40
2022-10-20T03:49:33.774Z,17.50
2022-10-20T03:52:01.548Z,17.40
2022-10-20T03:54:29.510Z,17.20
2022-10-20T03:56:58.684Z,17.20
2022-10-20T03:59:29.526Z,17.30
2022-10-20T04:01:58.468Z,17.30
2022-10-20T04:04:26.451Z,17.20
2022-10-20T04:06:54.195Z,17.30
2022-10-20T04:09:22.003Z,17.10
2022-10-20T04:11:49.804Z,17.20
2022-10-20T04:14:18.925Z,17.20
2022-10-20T04:16:46.699Z,17.20
2022-10-20T04:19:14.675Z,17.20
2022-10-20T04:21:42.465Z,17.00
2022-10-20T04:24:10.251Z,17.20
2022-10-20T04:26:38.059Z,17.20
2022-10-20T04:29:05.887Z,17.20
2022-10-20T04:31:36.054Z,17.20
2022-10-20T04:34:03.898Z,17.20
2022-10-20T04:36:31.678Z,17.40
2022-10-20T04:38:59.539Z,17.40
2022-10-20T04:41:27.315Z,17.40
2022-10-20T04:43:55.108Z,17.40
2022-10-20T04:46:22.878Z,17.50
2022-10-20T04:48:51.970Z,17.60
2022-10-20T04:51:19.935Z,17.50
2022-10-20T04:53:48.026Z,17.40
2022-10-20T04:56:19.349Z,17.30
2022-10-20T04:58:49.110Z,17.30
2022-10-20T05:01:17.832Z,17.30
2022-10-20T05:03:45.829Z,17.30
2022-10-20T05:06:17.002Z,17.50
2022-10-20T05:08:46.486Z,17.60
2022-10-20T05:11:15.418Z,17.60
2022-10-20T05:13:43.855Z,17.60
2022-10-20T05:16:12.491Z,17.30
2022-10-20T05:18:41.012Z,17.40
2022-10-20T05:21:10.223Z,17.50
2022-10-20T05:23:40.951Z,17.40
2022-10-20T05:26:12.776Z,17.40
2022-10-20T05:28:43.448Z,17.40
2022-10-20T05:31:11.266Z,17.40
2022-10-20T05:33:39.722Z,17.40
2022-10-20T05:36:09.428Z,17.50
2022-10-20T05:38:39.326Z,17.50
2022-10-20T05:41:08.859Z,17.40
2022-10-20T05:43:36.689Z,17.50
2022-10-20T05:46:05.376Z,17.50
2022-10-20T05:48:33.880Z,17.30
2022-10-20T05:51:12.014Z,17.30
2022-10-20T05:53:44.547Z,17.30
2022-10-20T05:56:14.613Z,17.20
2022-10-20T05:58:43.486Z,17.20
2022-10-20T06:01:16.731Z,17.20
2022-10-20T06:03:47.676Z,17.10
2022-10-20T06:06:15.796Z,17.00
2022-10-20T06:08:45.087Z,17.20
2022-10-20T06:11:14.412Z,17.20
2022-10-20T06:13:42.455Z,17.20
2022-10-20T06:16:12.576Z,16.90
2022-10-20T06:18:40.506Z,16.90
2022-10-20T06:21:10.771Z,16.80
2022-10-20T06:23:38.546Z,16.80
2022-10-20T06:26:09.802Z,16.60
2022-10-20T06:28:38.711Z,16.60
2022-10-20T06:31:12.830Z,16.60
2022-10-20T06:33:40.938Z,16.70
2022-10-20T06:36:09.331Z,16.60
2022-10-20T06:38:38.138Z,16.60
2022-10-20T06:41:10.270Z,16.60
2022-10-20T06:43:38.218Z,16.60
2022-10-20T06:46:08.069Z,16.60
2022-10-20T06:48:36.643Z,16.70
2022-10-20T06:51:06.959Z,16.70
2022-10-20T06:53:36.193Z,16.60
2022-10-20T06:56:07.732Z,16.60
2022-10-20T06:58:37.030Z,16.60
2022-10-20T07:01:09.995Z,16.60
2022-10-20T07:03:39.448Z,16.60
2022-10-20T07:06:08.954Z,16.60
2022-10-20T07:08:37.528Z,16.50
2022-10-20T07:11:09.332Z,16.40
2022-10-20T07:13:38.516Z,16.40
2022-10-20T07:16:07.787Z,16.50
2022-10-20T07:18:36.736Z,16.60
2022-10-20T07:21:06.334Z,16.50
2022-10-20T07:23:35.349Z,16.70
2022-10-20T07:26:04.076Z,16.70
2022-10-20T07:28:33.718Z,16.80
2022-10-20T07:31:04.451Z,16.80
2022-10-20T07:33:32.685Z,16.80
2022-10-20T07:36:00.518Z,16.80
2022-10-20T07:38:28.330Z,16.80
2022-10-20T07:41:03.160Z,16.80
2022-10-20T07:43:31.135Z,16.80
2022-10-20T07:46:00.240Z,16.80
2022-10-20T07:48:28.023Z,16.90
2022-10-20T07:50:55.820Z,18.70
2022-10-20T07:53:23.608Z,19.70
2022-10-20T07:55:51.361Z,20.20
2022-10-20T07:58:19.742Z,20.60
2022-10-20T08:00:47.551Z,20.80
2022-10-20T08:03:16.669Z,20.90
2022-10-20T08:05:44.416Z,21.00
2022-10-20T08:08:12.510Z,20.90
2022-10-20T08:10:40.316Z,21.00
2022-10-20T08:13:08.308Z,21.00
2022-10-20T08:15:39.279Z,21.10
2022-10-20T08:18:20.865Z,21.20
2022-10-20T08:20:50.017Z,21.20
2022-10-20T08:23:18.539Z,21.20
2022-10-20T08:25:46.413Z,21.20
2022-10-20T08:28:14.185Z,21.30
2022-10-20T08:30:41.949Z,21.30
2022-10-20T08:33:09.723Z,21.40
2022-10-20T08:35:37.507Z,21.40
2022-10-20T08:38:07.689Z,21.40
2022-10-20T08:40:37.703Z,21.50
2022-10-20T08:43:05.514Z,21.50
2022-10-20T08:45:38.155Z,21.50
2022-10-20T08:48:06.516Z,21.50
2022-10-20T08:50:35.317Z,21.50
2022-10-20T08:53:03.117Z,21.50
2022-10-20T08:55:34.117Z,21.60
2022-10-20T08:58:04.679Z,21.60
2022-10-20T09:00:33.786Z,21.60
2022-10-20T09:03:10.711Z,21.60
2022-10-20T09:05:43.098Z,21.60
2022-10-20T09:08:10.918Z,21.60
2022-10-20T09:10:43.272Z,21.70
2022-10-20T09:13:18.423Z,21.70
2022-10-20T09:15:46.226Z,21.80
2022-10-20T09:18:16.170Z,21.80
2022-10-20T09:20:48.448Z,21.80
2022-10-20T09:23:39.553Z,21.80
2022-10-20T09:26:24.702Z,21.70
2022-10-20T09:29:12.836Z,21.70
2022-10-20T09:31:43.421Z,21.80
2022-10-20T09:34:22.711Z,21.70
2022-10-20T09:36:52.164Z,21.80
2022-10-20T09:39:22.671Z,21.80
2022-10-20T09:44:40.419Z,21.80
2022-10-20T09:47:15.522Z,21.80
2022-10-20T09:49:46.361Z,21.80
2022-10-20T09:52:23.470Z,21.80
2022-10-20T09:54:53.141Z,21.80
2022-10-20T09:57:23.587Z,21.80
2022-10-20T09:59:53.132Z,21.70
2022-10-20T10:02:29.896Z,21.70
2022-10-20T10:05:16.869Z,21.80
2022-10-20T10:07:44.635Z,22.00
2022-10-20T10:10:26.094Z,22.10
2022-10-20T10:12:56.871Z,22.20
2022-10-20T10:15:31.479Z,22.30
2022-10-20T10:18:00.312Z,22.30
2022-10-20T10:20:36.941Z,22.30
2022-10-20T10:23:22.058Z,22.30
2022-10-20T10:25:50.826Z,22.30
2022-10-20T10:28:30.740Z,22.20
2022-10-20T10:31:27.264Z,22.20
2022-10-20T10:34:03.404Z,22.20
2022-10-20T10:36:33.846Z,22.20
2022-10-20T10:39:02.338Z,22.20
2022-10-20T10:41:54.494Z,21.90
2022-10-20T10:44:37.535Z,21.60
2022-10-20T10:47:33.309Z,21.40
2022-10-20T10:50:22.604Z,21.30
2022-10-20T10:53:00.175Z,21.20
2022-10-20T10:55:49.271Z,21.20
2022-10-20T10:58:31.992Z,21.30
2022-10-20T11:01:08.512Z,21.40
2022-10-20T11:03:49.895Z,21.40
2022-10-20T11:06:24.578Z,21.30
2022-10-20T11:09:20.432Z,21.30
2022-10-20T11:12:13.732Z,21.30
2022-10-20T11:14:49.816Z,21.40
2022-10-20T11:17:36.553Z,21.40
2022-10-20T11:20:16.552Z,21.60
2022-10-20T11:22:56.305Z,21.70
2022-10-20T11:25:33.274Z,21.80
2022-10-20T11:28:01.654Z,21.80
2022-10-20T11:30:31.050Z,21.90
2022-10-20T11:33:08.952Z,21.90
2022-10-20T11:35:43.236Z,22.00
2022-10-20T11:38:19.489Z,22.00
2022-10-20T11:40:53.985Z,22.00
2022-10-20T11:43:27.767Z,22.00
2022-10-20T11:46:00.980Z,22.00
2022-10-20T11:48:34.925Z,22.00
2022-10-20T11:51:17.050Z,21.90
2022-10-20T11:54:01.084Z,20.70
2022-10-20T11:56:47.684Z,20.20
2022-10-20T11:59:47.904Z,19.90
2022-10-20T12:02:40.431Z,19.80
2022-10-20T12:05:30.945Z,19.70
2022-10-20T12:08:35.691Z,19.60
2022-10-20T12:11:10.515Z,19.60
2022-10-20T12:13:46.485Z,19.70
2022-10-20T12:16:14.338Z,19.60
2022-10-20T12:19:16.114Z,19.60
2022-10-20T12:21:58.557Z,19.50
2022-10-20T12:25:04.278Z,19.50
2022-10-20T12:27:33.268Z,19.50
2022-10-20T12:30:04.443Z,19.40
2022-10-20T12:33:00.857Z,19.40
2022-10-20T12:36:01.143Z,19.40
2022-10-20T12:38:31.820Z,19.40
2022-10-20T12:41:01.956Z,19.40
2022-10-20T12:43:37.296Z,19.30
2022-10-20T12:46:10.183Z,19.30
2022-10-20T12:48:45.243Z,19.30
2022-10-20T12:51:36.002Z,19.30
2022-10-20T12:54:09.220Z,19.30
2022-10-20T12:56:40.292Z,19.30
2022-10-20T12:59:24.563Z,19.30
2022-10-20T13:02:40.432Z,19.40
2022-10-20T13:05:29.537Z,19.30
2022-10-20T13:08:18.769Z,19.30
2022-10-20T13:10:49.228Z,19.30
2022-10-20T13:13:44.537Z,19.30
2022-10-20T13:16:21.212Z,19.30
2022-10-20T13:18:51.526Z,19.30
2022-10-20T13:21:32.152Z,19.30
2022-10-20T13:24:04.629Z,19.30
2022-10-20T13:26:39.623Z,19.30
2022-10-20T13:29:15.022Z,19.30
2022-10-20T13:31:49.518Z,19.30
2022-10-20T13:34:23.301Z,19.30
2022-10-20T13:37:08.319Z,19.30
2022-10-20T13:39:45.079Z,19.20
2022-10-20T13:42:28.797Z,19.20
2022-10-20T13:45:04.552Z,19.20
2022-10-20T13:47:52.353Z,19.20
2022-10-20T13:50:24.076Z,19.20
2022-10-20T13:52:55.259Z,19.30
2022-10-20T13:55:26.015Z,19.30
2022-10-20T13:57:57.142Z,19.20
2022-10-20T14:00:27.740Z,19.20
2022-10-20T14:02:59.140Z,19.20
2022-10-20T14:05:28.384Z,19.20
2022-10-20T14:07:57.063Z,19.20
2022-10-20T14:10:29.179Z,19.20
2022-10-20T14:12:58.482Z,19.20
2022-10-20T14:15:31.529Z,19.20
2022-10-20T14:18:02.541Z,19.20
2022-10-20T14:20:31.565Z,19.20
2022-10-20T14:23:01.487Z,19.20
2022-10-20T14:25:31.349Z,19.20
2022-10-20T14:28:05.202Z,19.20
2022-10-20T14:30:40.199Z,19.10
2022-10-20T14:33:15.890Z,19.10
2022-10-20T14:35:46.237Z,19.20
2022-10-20T14:38:19.855Z,19.20
2022-10-20T14:40:52.700Z,19.20
2022-10-20T14:43:31.850Z,19.20
2022-10-20T14:46:02.354Z,19.20
2022-10-20T14:48:34.957Z,19.20
2022-10-20T14:51:03.521Z,19.30
2022-10-20T14:53:33.966Z,19.30
2022-10-20T14:56:03.336Z,19.30
2022-10-20T14:58:38.494Z,19.30
2022-10-20T15:01:19.307Z,19.20
2022-10-20T15:03:47.263Z,19.30
2022-10-20T15:06:18.150Z,19.20
2022-10-20T15:08:54.679Z,19.20
2022-10-20T15:11:24.218Z,19.30
2022-10-20T15:13:56.040Z,19.20
2022-10-20T15:16:36.182Z,19.30
2022-10-20T15:19:28.541Z,19.20
2022-10-20T15:22:02.122Z,19.30
2022-10-20T15:24:30.195Z,19.30
2022-10-20T15:26:58.593Z,19.20
2022-10-20T15:29:28.488Z,19.20
2022-10-20T15:31:56.416Z,19.20
2022-10-20T15:34:25.425Z,19.20
2022-10-20T15:36:53.312Z,19.10
2022-10-20T15:39:21.102Z,19.20
2022-10-20T15:41:51.528Z,19.10
2022-10-20T15:44:23.300Z,19.10
2022-10-20T15:46:54.131Z,19.10
2022-10-20T15:49:22.223Z,19.20
2022-10-20T15:51:51.257Z,19.20
2022-10-20T15:54:21.446Z,19.30
2022-10-20T15:56:49.478Z,19.20
2022-10-20T15:59:17.510Z,19.20
2022-10-20T16:01:45.740Z,19.20
2022-10-20T16:04:23.556Z,19.20
2022-10-20T16:06:57.559Z,19.20
2022-10-20T16:09:27.139Z,19.10
2022-10-20T16:11:55.147Z,18.90
2022-10-20T16:14:22.950Z,19.00
2022-10-20T16:16:50.807Z,18.90
2022-10-20T16:19:20.286Z,19.10
2022-10-20T16:21:48.108Z,19.10
2022-10-20T16:24:15.864Z,19.10
2022-10-20T16:26:43.653Z,19.20
2022-10-20T16:29:11.429Z,19.20
2022-10-20T16:31:39.237Z,19.10
2022-10-20T16:34:07.026Z,19.10
2022-10-20T16:36:36.165Z,19.00
2022-10-20T16:39:03.963Z,19.00
2022-10-20T16:41:31.798Z,18.90
2022-10-20T16:44:01.233Z,18.90
2022-10-20T16:46:29.444Z,18.90
2022-10-20T16:48:57.456Z,18.90
2022-10-20T16:51:25.443Z,18.80
2022-10-20T16:54:00.783Z,18.90
2022-10-20T16:56:30.054Z,18.80
2022-10-20T16:58:57.838Z,18.80
2022-10-20T17:01:26.086Z,18.80
2022-10-20T17:03:54.629Z,18.80
2022-10-20T17:06:24.117Z,18.80
2022-10-20T17:08:52.462Z,18.80
2022-10-20T17:11:24.639Z,19.20
2022-10-20T17:13:53.399Z,19.20
2022-10-20T17:16:26.187Z,19.20
2022-10-20T17:18:56.802Z,19.20
2022-10-20T17:21:25.079Z,19.30
2022-10-20T17:23:53.044Z,19.30
2022-10-20T17:26:23.554Z,19.40
2022-10-20T17:28:54.556Z,19.40
2022-10-20T17:31:22.543Z,19.30
2022-10-20T17:33:51.413Z,19.30
2022-10-20T17:36:25.681Z,19.40
2022-10-20T17:38:56.343Z,19.40
2022-10-20T17:41:25.993Z,19.40
2022-10-20T17:43:54.021Z,19.40
2022-10-20T17:46:22.626Z,19.30
2022-10-20T17:48:50.466Z,19.30
2022-10-20T17:51:20.365Z,19.30
2022-10-20T17:53:49.791Z,19.30
2022-10-20T17:56:19.226Z,19.30
2022-10-20T17:58:50.192Z,19.40
2022-10-20T18:01:19.964Z,19.40
2022-10-20T18:03:49.647Z,19.30
2022-10-20T18:06:19.089Z,19.30
2022-10-20T18:08:47.073Z,19.30
2022-10-20T18:11:17.167Z,19.40
2022-10-20T18:13:45.252Z,19.20
2022-10-20T18:16:16.575Z,19.30
2022-10-20T18:18:44.617Z,19.30
2022-10-20T18:21:15.029Z,19.30
2022-10-20T18:23:45.566Z,19.30
2022-10-20T18:26:15.029Z,19.30
2022-10-20T18:28:45.765Z,19.30
2022-10-20T18:31:20.657Z,19.30
2022-10-20T18:33:49.264Z,19.40
2022-10-20T18:36:18.785Z,19.40
2022-10-20T18:38:47.769Z,19.50
2022-10-20T18:41:17.649Z,19.40
2022-10-20T18:43:46.343Z,19.40
2022-10-20T18:46:15.555Z,19.40
2022-10-20T18:48:44.722Z,19.40
2022-10-20T18:51:14.652Z,19.50
2022-10-20T18:53:44.006Z,19.40
2022-10-20T18:56:14.853Z,19.40
2022-10-20T18:58:48.556Z,19.40
2022-10-20T19:01:18.118Z,19.50
2022-10-20T19:03:49.157Z,19.50
2022-10-20T19:06:19.057Z,19.50
2022-10-20T19:08:52.480Z,19.50
2022-10-20T19:11:20.906Z,19.50
2022-10-20T19:13:48.777Z,19.50
2022-10-20T19:16:19.154Z,19.50
2022-10-20T19:18:49.783Z,19.60
2022-10-20T19:21:18.327Z,19.50
2022-10-20T19:23:49.851Z,19.60
2022-10-20T19:26:19.638Z,19.50
2022-10-20T19:28:49.494Z,19.50
2022-10-20T19:31:21.581Z,19.50
2022-10-20T19:33:53.690Z,19.60
2022-10-20T19:36:22.004Z,19.60
2022-10-20T19:38:50.034Z,19.50
2022-10-20T19:41:18.046Z,19.60
2022-10-20T19:43:46.044Z,19.60
2022-10-20T19:46:15.823Z,19.60
2022-10-20T19:48:44.608Z,19.60
2022-10-20T19:51:14.470Z,19.50
2022-10-20T19:53:42.318Z,19.50
2022-10-20T19:56:11.461Z,19.60
2022-10-20T19:58:42.784Z,19.60
2022-10-20T20:01:13.666Z,19.60
2022-10-20T20:03:41.599Z,19.70
2022-10-20T20:06:16.125Z,19.60
2022-10-20T20:08:46.965Z,19.60
2022-10-20T20:11:23.545Z,19.70
2022-10-20T20:13:52.351Z,19.70
2022-10-20T20:16:20.808Z,19.60
2022-10-20T20:18:49.214Z,19.70
2022-10-20T20:21:18.123Z,19.70
2022-10-20T20:23:58.921Z,19.70
2022-10-20T20:26:27.237Z,19.70
2022-10-20T20:28:55.534Z,19.60
2022-10-20T20:31:24.164Z,19.60
2022-10-20T20:33:52.740Z,19.70
2022-10-20T20:36:21.105Z,19.60
2022-10-20T20:38:52.620Z,19.60
2022-10-20T20:41:24.460Z,19.50
2022-10-20T20:43:52.256Z,19.60
2022-10-20T20:46:22.280Z,19.50
2022-10-20T20:48:50.914Z,19.50
2022-10-20T20:51:19.020Z,19.50
2022-10-20T20:53:46.835Z,19.50
2022-10-20T20:56:20.547Z,19.60
2022-10-20T20:58:55.055Z,19.60
2022-10-20T21:01:24.923Z,19.50
2022-10-20T21:03:54.444Z,19.60
2022-10-20T21:06:28.767Z,19.50
2022-10-20T21:09:02.156Z,19.60
2022-10-20T21:11:31.341Z,19.60
2022-10-20T21:13:59.947Z,19.50
2022-10-20T21:16:30.023Z,19.50
2022-10-20T21:18:59.620Z,19.50
2022-10-20T21:21:29.120Z,19.50
2022-10-20T21:23:58.001Z,19.50
2022-10-20T21:26:26.879Z,19.60
2022-10-20T21:28:56.789Z,19.60
2022-10-20T21:31:27.366Z,19.60
2022-10-20T21:33:57.242Z,19.60
2022-10-20T21:36:26.286Z,19.60
2022-10-20T21:38:54.500Z,19.50
2022-10-20T21:41:24.052Z,19.50
2022-10-20T21:43:53.669Z,19.50
2022-10-20T21:46:24.594Z,19.50
2022-10-20T21:48:54.328Z,19.40
2022-10-20T21:51:24.066Z,19.60
2022-10-20T21:53:56.318Z,19.40
2022-10-20T21:56:24.629Z,19.10
2022-10-20T21:58:52.936Z,19.00
2022-10-20T22:01:24.453Z,18.90
2022-10-20T22:03:54.017Z,18.90
2022-10-20T22:06:23.803Z,18.60
2022-10-20T22:08:53.551Z,18.60
2022-10-20T22:11:27.500Z,18.50
2022-10-20T22:13:55.904Z,18.40
2022-10-20T22:16:27.418Z,18.40
2022-10-20T22:18:56.080Z,18.40
2022-10-20T22:21:24.363Z,18.30
2022-10-20T22:23:54.356Z,18.30
2022-10-20T22:26:22.607Z,18.30
2022-10-20T22:28:51.648Z,18.30
2022-10-20T22:31:19.511Z,18.30
2022-10-20T22:33:48.624Z,18.10
2022-10-20T22:36:16.400Z,18.10
2022-10-20T22:38:44.188Z,18.10
2022-10-20T22:41:12.437Z,18.00
2022-10-20T22:43:40.245Z,18.10
2022-10-20T22:46:08.510Z,18.10
2022-10-20T22:48:36.598Z,18.10
2022-10-20T22:51:06.843Z,18.10
2022-10-20T22:53:34.642Z,18.00
2022-10-20T22:56:07.456Z,18.10
2022-10-20T22:58:35.359Z,18.00
2022-10-20T23:01:07.926Z,18.00
2022-10-20T23:03:35.790Z,18.00
2022-10-20T23:06:08.774Z,18.00
2022-10-20T23:08:40.524Z,17.90
2022-10-20T23:11:08.368Z,18.00
2022-10-20T23:13:36.174Z,18.00
2022-10-20T23:16:04.036Z,18.00
2022-10-20T23:18:31.797Z,18.00
2022-10-20T23:20:59.615Z,18.00
2022-10-20T23:23:28.967Z,18.00
2022-10-20T23:25:59.584Z,18.00
2022-10-20T23:28:30.032Z,18.00
2022-10-20T23:31:06.769Z,17.90
2022-10-20T23:33:34.540Z,17.90
2022-10-20T23:36:02.369Z,18.00
2022-10-20T23:38:31.795Z,17.90
2022-10-20T23:40:59.630Z,17.90
2022-10-20T23:43:27.461Z,18.00
2022-10-20T23:45:55.268Z,17.90
2022-10-20T23:48:23.036Z,17.90
2022-10-20T23:50:50.935Z,17.90
2022-10-20T23:53:18.786Z,17.90
2022-10-20T23:55:48.097Z,18.00
2022-10-20T23:58:15.978Z,17.90
